Hualapai Flat, Nevada Weather observations

Data are for 10 minute period ending at time listed.
 Day   Time   Solar   Ave.   Ave.  Ave.  Vector  Max.   Baro.   Total    
  of    of     Rad.   Air    Rel.  Wind   Wind   Wind  Press.  Precip.   
Year   Day            Temp.  Hum.  Speed  Dir.   Gust                    
2014   (PST)  Kw/m2    F      %     mph   deg.    mph    mb.     in.     
-------------------------------------------------------------------------
 106    8:30   0.57  99999.0    30    1.8   142     5.1   875.7    0.00 
 106    8:40   0.60  99999.0    33    2.3    73     5.2   875.6    0.00 
 106    8:50   0.63  99999.0    37    1.3    76     3.7   875.7    0.00 
 106    9:00   0.65  99999.0    44    1.5   355     3.3   875.7    0.00 
 106    9:10   0.66  99999.0    38    2.3   187     6.4   875.8    0.00 
 106    9:20   0.69  99999.0    32    2.9   226     5.6   875.8    0.00 
 106    9:30   0.73  99999.0    32    5.5   132    10.5   875.8    0.00 
 106    9:40   0.74  99999.0    30    2.6   145     7.3   875.8    0.00 
 106    9:50   0.77  99999.0    28    3.2   189    10.1   875.8    0.00 
 106   10:00   0.79  99999.0    31    6.8   171    13.2   875.9    0.00 
 106   10:10   0.81  99999.0    30    6.3   194    11.6   875.9    0.00 
 106   10:20   0.82  99999.0    31    5.8   198    10.6   875.8    0.00 
 106   10:30   0.84  99999.0    29    2.4   206     7.5   875.7    0.00 
 106   10:40   0.86  99999.0    31    4.7   134    12.3   875.6    0.00 
 106   10:50   0.87  99999.0    32    6.9   180    10.3   875.5    0.00 
 106   11:00   0.88  99999.0    30    5.2   156     9.2   875.5    0.00 
 106   11:10   0.88  99999.0    27    4.0   235     7.9   875.4    0.00 
 106   11:20   0.89  99999.0    30    3.6   136     8.0   875.2    0.00 
 106   11:30   0.90  99999.0    28    5.2   167     9.9   875.2    0.00 
 106   11:40   0.90  99999.0    29    3.2   194     9.7   875.1    0.00 
 106   11:50   0.91  99999.0    29    4.7   119     8.5   875.0    0.00 
 106   12:00   0.91  99999.0    28    2.4   149     7.3   874.8    0.00 
 106   12:10   0.90  99999.0    30    7.5   129    14.0   874.7    0.00 
 106   12:20   0.90  99999.0    31    7.1   121    12.7   874.5    0.00 
 106   12:30   0.90  99999.0    28    5.4   140    10.2   874.4    0.00 
 106   12:40   0.89  99999.0    27    4.0   146     8.9   874.4    0.00 
 106   12:50   0.88  99999.0    29    7.2   172    12.9   874.3    0.00 
 106   13:00   0.87  99999.0    28    6.4   178    10.7   874.2    0.00 
 106   13:10   0.86  99999.0    26    5.1   166    12.2   874.0    0.00 
 106   13:20   0.85  99999.0    28    7.3   185    11.6   874.0    0.00 
 106   13:30   0.83  99999.0    26    4.7   153     9.8   873.9    0.00 
 106   13:40   0.81  99999.0    25    5.0   182    14.0   873.8    0.00 
 106   13:50   0.80  99999.0    27    5.0   130     9.5   873.7    0.00 
 106   14:00   0.79  99999.0    26    6.0   164    11.3   873.6    0.00 
 106   14:10   0.77  99999.0    25    2.7   150     7.0   873.4    0.00 
 106   14:20   0.75  99999.0    28    5.3   114     9.0   873.3    0.00 
 106   14:30   0.69  99999.0    30    8.6   153    14.2   873.1    0.00 
 106   14:40   0.65  99999.0    29    6.8   150    12.3   873.0    0.00 
 106   14:50   0.57  99999.0    29    6.6   131    12.3   872.9    0.00 
 106   15:00   0.57  99999.0    28    7.6   152    12.3   872.8    0.00 
 106   15:10   0.57  99999.0    28    7.8   158    14.5   872.7    0.00 
 106   15:20   0.59  99999.0    28    6.0   141    17.0   872.6    0.00 
 106   15:30   0.56  99999.0    28    6.7   137    12.2   872.5    0.00 
 106   15:40   0.54  99999.0    28    7.9   136    15.5   872.3    0.00 
 106   15:50   0.49  99999.0    27    7.1   166    14.0   872.3    0.00 
 106   16:00   0.46  99999.0    28    7.0   122    13.2   872.3    0.00 
 106   16:10   0.44  99999.0    28    6.7   136    12.2   872.3    0.00 
 106   16:20   0.40  99999.0    29    6.2   145    11.5   872.3    0.00 
 106   16:30   0.37  99999.0    30    7.5   133    14.2   872.2    0.00 
 106   16:40   0.30  99999.0    32    6.7   141    12.8   872.2    0.00 
 106   16:50   0.24  99999.0    30    7.2   152     9.8   872.2    0.00 
 106   17:00   0.21  99999.0    32    6.6   168    11.5   872.2    0.00 
 106   17:10   0.21  99999.0    32    5.9   147     9.6   872.2    0.00 
 106   17:20   0.21  99999.0    37    4.8   177     7.4   872.3    0.00 
 106   17:30   0.17  99999.0    36    5.3   165     7.5   872.3    0.00 
 106   17:40   0.12  99999.0    39    4.5   168     6.8   872.3    0.00 
 106   17:50   0.08  99999.0    38    4.6   167     5.9   872.2    0.00 
 106   18:00   0.09  99999.0    38    2.8   150     4.1   872.3    0.00 
 106   18:10   0.07  99999.0    35    3.4   111     7.6   872.5    0.00 
 106   18:20   0.04  99999.0    31    5.9    93     7.6   872.5    0.00 
 106   18:30   0.02  99999.0    34    4.5   108     6.1   872.5    0.00 
 106   18:40   0.01  99999.0    31    1.5    35     3.1   872.5    0.00 
 106   18:50   0.00  99999.0    27    3.1   351     4.2   872.6    0.00 
 106   19:00   0.00  99999.0    25    1.5   344     2.6   872.6    0.00 
 106   19:10   0.00  99999.0    27    1.8   274     3.2   872.6    0.00 
 106   19:20   0.00  99999.0    30    5.7   292     8.5   872.7    0.00 
 106   19:30   0.00  99999.0    32    5.8   271     8.0   872.8    0.00 
 106   19:40   0.00  99999.0    34    6.9   290     8.7   872.8    0.00 
 106   19:50   0.00  99999.0    37    7.4   288     8.4   873.0    0.00 
 106   20:00   0.00  99999.0    37    7.5   288     9.2   873.0    0.00 
 106   20:10   0.00  99999.0    35    7.6   286     9.6   873.0    0.00 
 106   20:20   0.00  99999.0    35    7.6   287    10.2   873.2    0.00 
 106   20:30   0.00  99999.0    38    7.4   305     8.6   873.3    0.00 
 106   20:40   0.00  99999.0    40    6.7   296     7.8   873.4    0.00 
 106   20:50   0.00  99999.0    41    7.4   299     8.9   873.4    0.00 
 106   21:00   0.00  99999.0    39    7.0   293     8.3   873.4    0.00 
 106   21:10   0.00  99999.0    43    6.5   321     7.7   873.6    0.00 
 106   21:20   0.00  99999.0    41    6.9   302     8.5   873.5    0.00 
 106   21:30   0.00  99999.0    42    6.8   290     7.7   873.6    0.00 
 106   21:40   0.00  99999.0    43    5.9   296     7.5   873.5    0.00 
 106   21:50   0.00  99999.0    45    4.0   332     5.1   873.6    0.00 
 106   22:00   0.00  99999.0    45    5.5   305     8.4   873.6    0.00 
 106   22:10   0.00  99999.0    42    6.0   303     8.1   873.6    0.00 
 106   22:20   0.00  99999.0    45    5.1   327     8.0   873.7    0.00 
 106   22:30   0.00  99999.0    44    4.8    26     8.0   873.8    0.00 
 106   22:40   0.00  99999.0    38    3.5   316     4.5   873.7    0.00 
 106   22:50   0.00  99999.0    36    5.2   288     6.2   873.8    0.00 
 106   23:00   0.00  99999.0    41    4.9   269     6.0   873.8    0.00 
 106   23:10   0.00  99999.0    42    3.4   272     4.3   873.8    0.00 
 106   23:20   0.00  99999.0    45    4.0    57     8.6   873.9    0.00 
 106   23:30   0.00  99999.0    46    1.8   183     3.1   873.9    0.00 
 106   23:40   0.00  99999.0    50    4.1   240     5.5   873.8    0.00 
 106   23:50   0.00  99999.0    54    5.9   226     6.9   873.8    0.00 
 107    0:00   0.00  99999.0    55    6.1   234     7.6   873.7    0.00 
 107    0:10   0.00  99999.0    52    6.0   247     7.7   873.6    0.00 
 107    0:20   0.00  99999.0    52    4.9   270     7.8   873.6    0.00 
 107    0:30   0.00  99999.0    53    6.6   289     7.9   873.5    0.00 
 107    0:40   0.00  99999.0    53    5.3   321     7.3   873.5    0.00 
 107    0:50   0.00  99999.0    52    5.0    20     6.3   873.4    0.00 
 107    1:00   0.00  99999.0    55    5.2    11     6.1   873.4    0.00 
 107    1:10   0.00  99999.0    55    4.8   334     6.4   873.3    0.00 
 107    1:20   0.00  99999.0    54    4.7   330     6.9   873.2    0.00 
 107    1:30   0.00  99999.0    53    6.4   324     7.4   873.1    0.00 
 107    1:40   0.00  99999.0    51    5.9   319     6.8   873.0    0.00 
 107    1:50   0.00  99999.0    53    6.0   290     6.9   873.0    0.00 
 107    2:00   0.00  99999.0    55    6.4   295     8.1   872.9    0.00 
 107    2:10   0.00  99999.0    56    6.8   298     7.6   872.9    0.00 
 107    2:20   0.00  99999.0    59    5.8   314     7.7   872.9    0.00 
 107    2:30   0.00  99999.0    62    4.7   333     6.4   872.9    0.00 
 107    2:40   0.00  99999.0    60    5.2   345     6.4   872.9    0.00 
 107    2:50   0.00  99999.0    60    5.3   336     6.4   872.9    0.00 
 107    3:00   0.00  99999.0    58    5.6   325     6.4   872.7    0.00 
 107    3:10   0.00  99999.0    56    4.6   311     5.6   872.7    0.00 
 107    3:20   0.00  99999.0    51    3.0   304     4.7   872.7    0.00 
 107    3:30   0.00  99999.0    53    1.9   252     3.9   872.7    0.00 
 107    3:40   0.00  99999.0    56    2.2   243     3.2   872.7    0.00 
 107    3:50   0.00  99999.0    57    2.8   240     3.7   872.7    0.00 
 107    4:00   0.00  99999.0    53    3.4   284     5.2   872.6    0.00 
 107    4:10   0.00  99999.0    53    5.1   273     5.6   872.6    0.00 
 107    4:20   0.00  99999.0    53    4.0   278     5.2   872.5    0.00 
 107    4:30   0.00  99999.0    52    2.8   289     3.7   872.4    0.00 
 107    4:40   0.00  99999.0    56    3.3   310     4.3   872.4    0.00 
 107    4:50   0.00  99999.0    59    5.0   301     6.1   872.4    0.00 
 107    5:00   0.00  99999.0    62    3.3   306     5.0   872.4    0.00 
 107    5:10   0.00  99999.0    62    1.5   302     2.6   872.4    0.00 
 107    5:20   0.01  99999.0    61    3.2   308     5.8   872.5    0.00 
 107    5:30   0.02  99999.0    63    5.0   318     6.0   872.5    0.00 
 107    5:40   0.04  99999.0    63    5.2   301     6.4   872.5    0.00 
 107    5:50   0.07  99999.0    64    3.7   342     5.7   872.5    0.00 
 107    6:00   0.10  99999.0    64    3.2   360     4.3   872.5    0.00 
 107    6:10   0.13  99999.0    65    4.3   344     5.5   872.5    0.00 
 107    6:20   0.14  99999.0    60    5.0   342     6.1   872.4    0.00 
 107    6:30   0.18  99999.0    58    3.7   347     4.9   872.3    0.00 
 107    6:40   0.19  99999.0    54    3.3   351     4.3   872.3    0.00 
 107    6:50   0.24  99999.0    51    3.3     1     4.4   872.3    0.00 
 107    7:00   0.27  99999.0    48    2.5    19     3.6   872.4    0.00 
 107    7:10   0.31  99999.0    43    3.0    43     3.9   872.5    0.00 
 107    7:20   0.34  99999.0    41    2.1    39     3.6   872.6    0.00 
 107    7:30   0.38  99999.0    39    0.9    19     2.0   872.6    0.00 
 107    7:40   0.41  99999.0    36    1.0   111     2.6   872.7    0.00 
 107    7:50   0.44  99999.0    37    2.5   168     3.9   872.7    0.00 
 107    8:00   0.48  99999.0    34    2.3   189     4.2   872.6    0.00 
 107    8:10   0.51  99999.0    35    3.0   154     5.8   872.5    0.00 
 107    8:20   0.54  99999.0    35    3.3   107     7.3   872.5    0.00 

Return to Hualapai Flat graphs page.


Western Regional Climate Center,wrcc@dri.edu